sensor_id;sensor_type;location;lat;lon;timestamp;pressure;altitude;pressure_sealevel;temperature;humidity
50684;BME280;36654;45.042;38.994;2023-07-13T00:01:44;101296.03;;;21.22;74.42
50684;BME280;36654;45.042;38.994;2023-07-13T00:04:13;101293.41;;;21.19;74.12
50684;BME280;36654;45.042;38.994;2023-07-13T00:06:39;101300.47;;;21.25;74.19
50684;BME280;36654;45.042;38.994;2023-07-13T00:09:04;101263.19;;;21.05;73.99
50684;BME280;36654;45.042;38.994;2023-07-13T00:11:30;101284.50;;;21.16;74.07
50684;BME280;36654;45.042;38.994;2023-07-13T00:13:56;101290.56;;;21.25;74.26
50684;BME280;36654;45.042;38.994;2023-07-13T00:16:21;101296.81;;;21.26;73.87
50684;BME280;36654;45.042;38.994;2023-07-13T00:18:47;101285.13;;;21.27;74.11
50684;BME280;36654;45.042;38.994;2023-07-13T00:21:13;101295.88;;;21.28;74.05
50684;BME280;36654;45.042;38.994;2023-07-13T00:23:40;101294.03;;;21.30;73.76
50684;BME280;36654;45.042;38.994;2023-07-13T00:26:09;101295.88;;;21.28;73.93
50684;BME280;36654;45.042;38.994;2023-07-13T00:28:36;101285.16;;;21.25;74.25
50684;BME280;36654;45.042;38.994;2023-07-13T00:31:02;101283.53;;;21.18;74.26
50684;BME280;36654;45.042;38.994;2023-07-13T00:33:29;101287.22;;;21.14;74.35
50684;BME280;36654;45.042;38.994;2023-07-13T00:35:55;101290.75;;;21.16;74.24
50684;BME280;36654;45.042;38.994;2023-07-13T00:38:21;101239.22;;;20.93;74.57
50684;BME280;36654;45.042;38.994;2023-07-13T00:40:47;101285.44;;;21.13;74.47
50684;BME280;36654;45.042;38.994;2023-07-13T00:43:19;101283.69;;;21.12;74.17
50684;BME280;36654;45.042;38.994;2023-07-13T00:48:25;101283.81;;;21.06;74.62
50684;BME280;36654;45.042;38.994;2023-07-13T00:50:53;101291.00;;;21.07;74.42
50684;BME280;36654;45.042;38.994;2023-07-13T00:53:21;101287.44;;;21.05;74.55
50684;BME280;36654;45.042;38.994;2023-07-13T00:55:48;101255.59;;;20.83;74.76
50684;BME280;36654;45.042;38.994;2023-07-13T00:58:15;101280.44;;;20.98;74.65
50684;BME280;36654;45.042;38.994;2023-07-13T01:00:41;101274.22;;;20.94;74.78
50684;BME280;36654;45.042;38.994;2023-07-13T01:03:07;101287.56;;;20.99;74.84
50684;BME280;36654;45.042;38.994;2023-07-13T01:05:34;101277.81;;;20.95;74.79
50684;BME280;36654;45.042;38.994;2023-07-13T01:08:01;101276.09;;;20.90;75.00
50684;BME280;36654;45.042;38.994;2023-07-13T01:10:28;101294.88;;;20.94;75.03
50684;BME280;36654;45.042;38.994;2023-07-13T01:12:54;101289.56;;;20.90;75.47
50684;BME280;36654;45.042;38.994;2023-07-13T01:15:39;101298.59;;;20.89;75.54
50684;BME280;36654;45.042;38.994;2023-07-13T01:18:08;101297.72;;;20.87;75.50
50684;BME280;36654;45.042;38.994;2023-07-13T01:20:35;101256.03;;;20.65;75.30
50684;BME280;36654;45.042;38.994;2023-07-13T01:23:04;101296.97;;;20.81;75.78
50684;BME280;36654;45.042;38.994;2023-07-13T01:25:31;101273.94;;;20.67;75.43
50684;BME280;36654;45.042;38.994;2023-07-13T01:27:57;101297.06;;;20.76;75.85
50684;BME280;36654;45.042;38.994;2023-07-13T01:30:23;101258.03;;;20.54;76.01
50684;BME280;36654;45.042;38.994;2023-07-13T01:32:49;101297.06;;;20.76;76.07
50684;BME280;36654;45.042;38.994;2023-07-13T01:35:14;101297.06;;;20.76;76.39
50684;BME280;36654;45.042;38.994;2023-07-13T01:37:42;101286.28;;;20.76;76.31
50684;BME280;36654;45.042;38.994;2023-07-13T01:40:08;101269.63;;;20.59;76.23
50684;BME280;36654;45.042;38.994;2023-07-13T01:42:34;101310.50;;;20.79;76.27
50684;BME280;36654;45.042;38.994;2023-07-13T01:45:00;101309.66;;;20.77;76.07
50684;BME280;36654;45.042;38.994;2023-07-13T01:47:25;101309.56;;;20.80;75.97
50684;BME280;36654;45.042;38.994;2023-07-13T01:49:51;101293.50;;;20.76;75.91
50684;BME280;36654;45.042;38.994;2023-07-13T01:52:17;101313.13;;;20.82;76.25
50684;BME280;36654;45.042;38.994;2023-07-13T01:54:43;101316.72;;;20.81;76.39
50684;BME280;36654;45.042;38.994;2023-07-13T01:57:09;101322.09;;;20.81;76.29
50684;BME280;36654;45.042;38.994;2023-07-13T01:59:35;101284.88;;;20.60;76.50
50684;BME280;36654;45.042;38.994;2023-07-13T02:02:01;101309.69;;;20.74;76.53
50684;BME280;36654;45.042;38.994;2023-07-13T02:04:26;101308.84;;;20.72;76.26
50684;BME280;36654;45.042;38.994;2023-07-13T02:06:52;101318.63;;;20.76;76.70
50684;BME280;36654;45.042;38.994;2023-07-13T02:09:18;101287.59;;;20.58;76.88
50684;BME280;36654;45.042;38.994;2023-07-13T02:11:43;101310.63;;;20.72;76.77
50684;BME280;36654;45.042;38.994;2023-07-13T02:14:09;101315.03;;;20.77;76.64
50684;BME280;36654;45.042;38.994;2023-07-13T02:16:34;101315.84;;;20.81;76.92
50684;BME280;36654;45.042;38.994;2023-07-13T02:19:00;101319.41;;;20.81;76.92
50684;BME280;36654;45.042;38.994;2023-07-13T02:21:26;101294.44;;;20.75;76.69
50684;BME280;36654;45.042;38.994;2023-07-13T02:23:52;101318.28;;;20.92;76.72
50684;BME280;36654;45.042;38.994;2023-07-13T02:26:18;101325.72;;;21.58;75.66
50684;BME280;36654;45.042;38.994;2023-07-13T02:28:44;101314.63;;;22.39;73.38
50684;BME280;36654;45.042;38.994;2023-07-13T02:31:12;101311.28;;;23.20;69.41
50684;BME280;36654;45.042;38.994;2023-07-13T02:33:38;101308.06;;;23.88;67.05
50684;BME280;36654;45.042;38.994;2023-07-13T02:36:04;101306.19;;;24.41;64.17
50684;BME280;36654;45.042;38.994;2023-07-13T02:38:34;101316.38;;;24.83;62.53
50684;BME280;36654;45.042;38.994;2023-07-13T02:41:02;101315.06;;;25.16;60.45
50684;BME280;36654;45.042;38.994;2023-07-13T02:43:27;101319.41;;;25.65;59.50
50684;BME280;36654;45.042;38.994;2023-07-13T02:45:53;101315.38;;;26.16;58.33
50684;BME280;36654;45.042;38.994;2023-07-13T02:48:19;101313.47;;;26.59;56.45
50684;BME280;36654;45.042;38.994;2023-07-13T02:50:45;101313.94;;;26.87;54.79
50684;BME280;36654;45.042;38.994;2023-07-13T02:53:11;101303.94;;;27.07;54.14
50684;BME280;36654;45.042;38.994;2023-07-13T02:55:37;101314.25;;;27.19;53.35
50684;BME280;36654;45.042;38.994;2023-07-13T02:58:02;101324.69;;;27.28;53.32
50684;BME280;36654;45.042;38.994;2023-07-13T03:00:29;101319.25;;;27.28;52.96
50684;BME280;36654;45.042;38.994;2023-07-13T03:02:54;101333.78;;;27.46;52.65
50684;BME280;36654;45.042;38.994;2023-07-13T03:05:23;101287.97;;;27.18;51.82
50684;BME280;36654;45.042;38.994;2023-07-13T03:07:50;101325.03;;;27.40;52.36
50684;BME280;36654;45.042;38.994;2023-07-13T03:10:19;101325.72;;;27.26;52.89
50684;BME280;36654;45.042;38.994;2023-07-13T03:12:45;101320.41;;;27.23;52.79
50684;BME280;36654;45.042;38.994;2023-07-13T03:15:10;101304.38;;;26.98;52.89
50684;BME280;36654;45.042;38.994;2023-07-13T03:17:36;101328.66;;;27.21;53.14
50684;BME280;36654;45.042;38.994;2023-07-13T03:20:02;101318.50;;;27.25;53.06
50684;BME280;36654;45.042;38.994;2023-07-13T03:22:28;101321.44;;;27.20;52.57
50684;BME280;36654;45.042;38.994;2023-07-13T03:24:55;101317.91;;;27.18;53.17
50684;BME280;36654;45.042;38.994;2023-07-13T03:27:21;101324.97;;;27.22;53.23
50684;BME280;36654;45.042;38.994;2023-07-13T03:29:46;101323.88;;;27.26;53.18
50684;BME280;36654;45.042;38.994;2023-07-13T03:32:12;101328.19;;;27.30;52.71
50684;BME280;36654;45.042;38.994;2023-07-13T03:34:37;101327.75;;;27.40;52.59
50684;BME280;36654;45.042;38.994;2023-07-13T03:37:03;101331.72;;;27.32;52.41
50684;BME280;36654;45.042;38.994;2023-07-13T03:39:29;101335.13;;;27.19;53.15
50684;BME280;36654;45.042;38.994;2023-07-13T03:41:55;101325.38;;;27.13;53.17
50684;BME280;36654;45.042;38.994;2023-07-13T03:44:21;101303.94;;;27.07;53.08
50684;BME280;36654;45.042;38.994;2023-07-13T03:46:46;101335.56;;;27.28;52.73
50684;BME280;36654;45.042;38.994;2023-07-13T03:49:12;101336.72;;;27.42;52.67
50684;BME280;36654;45.042;38.994;2023-07-13T03:51:38;101344.66;;;27.46;52.61
50684;BME280;36654;45.042;38.994;2023-07-13T03:54:04;101349.06;;;27.49;52.33
50684;BME280;36654;45.042;38.994;2023-07-13T03:56:30;101354.94;;;27.59;52.03
50684;BME280;36654;45.042;38.994;2023-07-13T03:58:56;101355.91;;;27.75;52.19
50684;BME280;36654;45.042;38.994;2023-07-13T04:01:24;101339.97;;;27.67;51.39
50684;BME280;36654;45.042;38.994;2023-07-13T04:03:52;101353.41;;;27.70;51.39
50684;BME280;36654;45.042;38.994;2023-07-13T04:06:22;101345.56;;;27.64;51.10
50684;BME280;36654;45.042;38.994;2023-07-13T04:08:53;101350.63;;;27.72;51.07
50684;BME280;36654;45.042;38.994;2023-07-13T04:11:21;101360.53;;;27.73;51.12
50684;BME280;36654;45.042;38.994;2023-07-13T04:13:48;101357.09;;;27.69;50.93
50684;BME280;36654;45.042;38.994;2023-07-13T04:16:14;101358.88;;;27.70;50.79
50684;BME280;36654;45.042;38.994;2023-07-13T04:18:40;101356.53;;;27.82;50.13
50684;BME280;36654;45.042;38.994;2023-07-13T04:21:07;101361.50;;;27.91;49.68
50684;BME280;36654;45.042;38.994;2023-07-13T04:23:34;101358.13;;;27.86;50.00
50684;BME280;36654;45.042;38.994;2023-07-13T04:25:59;101355.72;;;27.97;49.41
50684;BME280;36654;45.042;38.994;2023-07-13T04:28:26;101355.88;;;27.94;49.86
50684;BME280;36654;45.042;38.994;2023-07-13T04:30:55;101369.34;;;28.14;49.37
50684;BME280;36654;45.042;38.994;2023-07-13T04:33:21;101372.56;;;28.23;49.52
50684;BME280;36654;45.042;38.994;2023-07-13T04:35:49;101329.09;;;28.20;49.63
50684;BME280;36654;45.042;38.994;2023-07-13T04:38:16;101367.59;;;28.48;49.32
50684;BME280;36654;45.042;38.994;2023-07-13T04:40:45;101370.47;;;28.45;48.60
50684;BME280;36654;45.042;38.994;2023-07-13T04:43:11;101373.50;;;28.39;48.97
50684;BME280;36654;45.042;38.994;2023-07-13T04:45:37;101365.75;;;28.31;48.84
50684;BME280;36654;45.042;38.994;2023-07-13T04:48:02;101373.69;;;28.36;49.69
50684;BME280;36654;45.042;38.994;2023-07-13T04:50:28;101364.88;;;28.48;49.17
50684;BME280;36654;45.042;38.994;2023-07-13T04:52:54;101358.28;;;28.52;49.24
50684;BME280;36654;45.042;38.994;2023-07-13T04:55:20;101371.69;;;28.73;48.65
50684;BME280;36654;45.042;38.994;2023-07-13T04:57:46;101371.00;;;28.69;48.37
50684;BME280;36654;45.042;38.994;2023-07-13T05:00:13;101373.16;;;28.63;48.57
50684;BME280;36654;45.042;38.994;2023-07-13T05:02:43;101374.91;;;28.81;47.52
50684;BME280;36654;45.042;38.994;2023-07-13T05:05:08;101379.84;;;28.90;47.67
50684;BME280;36654;45.042;38.994;2023-07-13T05:07:34;101382.69;;;29.04;47.50
50684;BME280;36654;45.042;38.994;2023-07-13T05:10:02;101384.50;;;29.37;46.49
50684;BME280;36654;45.042;38.994;2023-07-13T05:12:29;101392.53;;;29.72;45.87
50684;BME280;36654;45.042;38.994;2023-07-13T05:14:55;101382.31;;;30.06;45.15
50684;BME280;36654;45.042;38.994;2023-07-13T05:17:21;101395.44;;;30.45;44.54
50684;BME280;36654;45.042;38.994;2023-07-13T05:19:49;101373.66;;;30.72;43.50
50684;BME280;36654;45.042;38.994;2023-07-13T05:22:15;101377.22;;;30.89;43.41
50684;BME280;36654;45.042;38.994;2023-07-13T05:24:40;101379.84;;;31.05;43.15
50684;BME280;36654;45.042;38.994;2023-07-13T05:27:07;101387.38;;;31.15;42.51
50684;BME280;36654;45.042;38.994;2023-07-13T05:29:33;101391.66;;;31.20;42.68
50684;BME280;36654;45.042;38.994;2023-07-13T05:31:59;101354.03;;;30.94;42.18
50684;BME280;36654;45.042;38.994;2023-07-13T05:34:24;101395.88;;;30.97;42.45
50684;BME280;36654;45.042;38.994;2023-07-13T05:36:51;101401.03;;;30.58;43.80
50684;BME280;36654;45.042;38.994;2023-07-13T05:39:17;101397.31;;;30.59;43.62
50684;BME280;36654;45.042;38.994;2023-07-13T05:41:43;101382.06;;;30.69;42.45
50684;BME280;36654;45.042;38.994;2023-07-13T05:44:09;101373.38;;;30.77;42.75
50684;BME280;36654;45.042;38.994;2023-07-13T05:46:34;101343.97;;;30.95;41.97
50684;BME280;36654;45.042;38.994;2023-07-13T05:49:00;101383.84;;;30.99;41.93
50684;BME280;36654;45.042;38.994;2023-07-13T05:51:26;101389.81;;;31.06;42.12
50684;BME280;36654;45.042;38.994;2023-07-13T05:53:51;101381.84;;;31.30;41.56
50684;BME280;36654;45.042;38.994;2023-07-13T05:56:17;101370.38;;;31.10;41.69
50684;BME280;36654;45.042;38.994;2023-07-13T05:58:43;101378.06;;;31.18;41.18
50684;BME280;36654;45.042;38.994;2023-07-13T06:01:13;101400.94;;;31.31;41.39
50684;BME280;36654;45.042;38.994;2023-07-13T06:03:39;101360.00;;;31.01;41.72
50684;BME280;36654;45.042;38.994;2023-07-13T06:06:06;101403.09;;;31.26;41.79
50684;BME280;36654;45.042;38.994;2023-07-13T06:08:33;101393.28;;;31.36;41.42
50684;BME280;36654;45.042;38.994;2023-07-13T06:11:22;101390.13;;;31.15;41.54
50684;BME280;36654;45.042;38.994;2023-07-13T06:13:48;101370.88;;;30.88;41.67
50684;BME280;36654;45.042;38.994;2023-07-13T06:16:15;101397.31;;;30.73;42.10
50684;BME280;36654;45.042;38.994;2023-07-13T06:18:41;101395.13;;;30.20;43.68
50684;BME280;36654;45.042;38.994;2023-07-13T06:21:18;101378.84;;;29.88;44.36
50684;BME280;36654;45.042;38.994;2023-07-13T06:23:45;101343.28;;;29.42;44.69
50684;BME280;36654;45.042;38.994;2023-07-13T06:26:13;101390.66;;;29.88;44.48
50684;BME280;36654;45.042;38.994;2023-07-13T06:28:39;101387.03;;;30.18;44.39
50684;BME280;36654;45.042;38.994;2023-07-13T06:31:09;101387.00;;;30.34;44.03
50684;BME280;36654;45.042;38.994;2023-07-13T06:33:35;101372.59;;;30.16;43.92
50684;BME280;36654;45.042;38.994;2023-07-13T06:36:03;101342.66;;;29.99;43.74
50684;BME280;36654;45.042;38.994;2023-07-13T06:38:30;101388.06;;;30.01;44.32
50684;BME280;36654;45.042;38.994;2023-07-13T06:40:56;101384.31;;;29.72;45.46
50684;BME280;36654;45.042;38.994;2023-07-13T06:43:21;101382.91;;;29.49;45.50
50684;BME280;36654;45.042;38.994;2023-07-13T06:45:48;101400.53;;;29.43;46.18
50684;BME280;36654;45.042;38.994;2023-07-13T06:48:19;101325.25;;;28.90;46.04
50684;BME280;36654;45.042;38.994;2023-07-13T06:50:45;101352.72;;;29.03;46.69
50684;BME280;36654;45.042;38.994;2023-07-13T06:53:12;101373.69;;;29.02;46.98
50684;BME280;36654;45.042;38.994;2023-07-13T06:55:38;101389.63;;;28.94;48.38
50684;BME280;36654;45.042;38.994;2023-07-13T06:58:04;101370.53;;;28.94;48.15
50684;BME280;36654;45.042;38.994;2023-07-13T07:00:30;101389.59;;;29.12;47.60
50684;BME280;36654;45.042;38.994;2023-07-13T07:02:56;101394.38;;;29.24;46.67
50684;BME280;36654;45.042;38.994;2023-07-13T07:05:22;101391.03;;;29.19;46.90
50684;BME280;36654;45.042;38.994;2023-07-13T07:07:52;101378.97;;;28.90;47.55
50684;BME280;36654;45.042;38.994;2023-07-13T07:10:18;101344.13;;;28.46;48.29
50684;BME280;36654;45.042;38.994;2023-07-13T07:12:44;101390.81;;;28.55;48.67
50684;BME280;36654;45.042;38.994;2023-07-13T07:15:10;101386.34;;;28.37;48.92
50684;BME280;36654;45.042;38.994;2023-07-13T07:17:36;101392.78;;;28.53;49.10
50684;BME280;36654;45.042;38.994;2023-07-13T07:20:02;101377.00;;;28.76;48.20
50684;BME280;36654;45.042;38.994;2023-07-13T07:22:29;101387.13;;;29.07;47.37
50684;BME280;36654;45.042;38.994;2023-07-13T07:24:56;101342.66;;;28.72;47.28
50684;BME280;36654;45.042;38.994;2023-07-13T07:27:22;101341.81;;;28.87;47.01
50684;BME280;36654;45.042;38.994;2023-07-13T07:29:48;101390.31;;;29.31;46.85
50684;BME280;36654;45.042;38.994;2023-07-13T07:32:13;101390.50;;;29.44;47.25
50684;BME280;36654;45.042;38.994;2023-07-13T07:34:39;101376.06;;;29.26;47.48
50684;BME280;36654;45.042;38.994;2023-07-13T07:37:05;101379.81;;;29.08;46.82
50684;BME280;36654;45.042;38.994;2023-07-13T07:39:31;101328.91;;;28.91;47.18
50684;BME280;36654;45.042;38.994;2023-07-13T07:41:57;101383.25;;;29.27;47.08
50684;BME280;36654;45.042;38.994;2023-07-13T07:44:22;101366.88;;;29.43;46.20
50684;BME280;36654;45.042;38.994;2023-07-13T07:46:48;101379.72;;;29.57;45.40
50684;BME280;36654;45.042;38.994;2023-07-13T07:49:14;101367.44;;;29.65;45.91
50684;BME280;36654;45.042;38.994;2023-07-13T07:51:41;101378.66;;;29.75;45.28
50684;BME280;36654;45.042;38.994;2023-07-13T07:54:06;101374.66;;;29.51;45.74
50684;BME280;36654;45.042;38.994;2023-07-13T07:56:32;101377.63;;;29.30;45.71
50684;BME280;36654;45.042;38.994;2023-07-13T07:58:58;101378.16;;;29.21;46.24
50684;BME280;36654;45.042;38.994;2023-07-13T08:01:24;101380.31;;;28.98;46.75
50684;BME280;36654;45.042;38.994;2023-07-13T08:03:50;101380.88;;;28.88;46.94
50684;BME280;36654;45.042;38.994;2023-07-13T08:06:16;101377.97;;;28.75;46.24
50684;BME280;36654;45.042;38.994;2023-07-13T08:08:42;101375.81;;;28.64;47.08
50684;BME280;36654;45.042;38.994;2023-07-13T08:11:08;101373.59;;;28.55;46.74
50684;BME280;36654;45.042;38.994;2023-07-13T08:13:34;101369.00;;;28.38;46.57
50684;BME280;36654;45.042;38.994;2023-07-13T08:15:59;101390.69;;;28.41;47.25
50684;BME280;36654;45.042;38.994;2023-07-13T08:18:25;101389.13;;;28.35;48.05
50684;BME280;36654;45.042;38.994;2023-07-13T08:20:53;101395.97;;;28.27;48.24
50684;BME280;36654;45.042;38.994;2023-07-13T08:23:21;101392.59;;;28.22;48.79
50684;BME280;36654;45.042;38.994;2023-07-13T08:25:53;101391.78;;;28.37;47.89
50684;BME280;36654;45.042;38.994;2023-07-13T08:28:22;101390.91;;;28.36;47.96
50684;BME280;36654;45.042;38.994;2023-07-13T08:30:48;101379.13;;;28.36;47.18
50684;BME280;36654;45.042;38.994;2023-07-13T08:33:20;101381.53;;;28.25;47.28
50684;BME280;36654;45.042;38.994;2023-07-13T08:35:47;101389.25;;;28.16;47.89
50684;BME280;36654;45.042;38.994;2023-07-13T08:38:13;101374.81;;;28.14;47.37
50684;BME280;36654;45.042;38.994;2023-07-13T08:40:39;101389.72;;;28.07;46.73
50684;BME280;36654;45.042;38.994;2023-07-13T08:43:11;101400.94;;;28.01;46.70
50684;BME280;36654;45.042;38.994;2023-07-13T08:45:46;101409.34;;;27.96;47.03
50684;BME280;36654;45.042;38.994;2023-07-13T08:48:28;101382.81;;;28.00;47.56
50684;BME280;36654;45.042;38.994;2023-07-13T08:51:38;101387.94;;;28.41;46.72
50684;BME280;36654;45.042;38.994;2023-07-13T08:54:03;101359.56;;;28.28;46.37
50684;BME280;36654;45.042;38.994;2023-07-13T08:56:31;101368.22;;;28.36;46.27
50684;BME280;36654;45.042;38.994;2023-07-13T08:59:14;101379.28;;;28.15;46.70
50684;BME280;36654;45.042;38.994;2023-07-13T09:04:49;101375.22;;;28.24;46.14
50684;BME280;36654;45.042;38.994;2023-07-13T09:10:14;101383.69;;;28.35;46.72
50684;BME280;36654;45.042;38.994;2023-07-13T09:15:41;101368.31;;;28.52;46.39
50684;BME280;36654;45.042;38.994;2023-07-13T09:18:18;101370.97;;;28.53;46.17
50684;BME280;36654;45.042;38.994;2023-07-13T09:21:20;101363.91;;;28.49;45.47
50684;BME280;36654;45.042;38.994;2023-07-13T09:23:38;101350.19;;;28.51;46.00
50684;BME280;36654;45.042;38.994;2023-07-13T09:28:37;101347.28;;;28.54;45.70
50684;BME280;36654;45.042;38.994;2023-07-13T09:31:16;101356.50;;;28.69;45.45
50684;BME280;36654;45.042;38.994;2023-07-13T09:33:43;101352.19;;;28.80;44.83
50684;BME280;36654;45.042;38.994;2023-07-13T09:36:25;101330.34;;;28.80;44.89
50684;BME280;36654;45.042;38.994;2023-07-13T09:39:12;101346.31;;;28.88;44.61
50684;BME280;36654;45.042;38.994;2023-07-13T09:42:01;101334.78;;;28.99;44.36
50684;BME280;36654;45.042;38.994;2023-07-13T09:46:57;101342.06;;;29.16;44.13
50684;BME280;36654;45.042;38.994;2023-07-13T09:49:28;101314.00;;;28.96;43.71
50684;BME280;36654;45.042;38.994;2023-07-13T09:52:03;101340.81;;;29.37;43.26
50684;BME280;36654;45.042;38.994;2023-07-13T09:54:29;101336.22;;;29.54;42.70
50684;BME280;36654;45.042;38.994;2023-07-13T09:56:59;101300.56;;;29.25;43.27
50684;BME280;36654;45.042;38.994;2023-07-13T09:59:29;101340.91;;;29.36;43.25
50684;BME280;36654;45.042;38.994;2023-07-13T10:01:55;101341.00;;;29.34;43.46
50684;BME280;36654;45.042;38.994;2023-07-13T10:04:33;101340.28;;;29.46;43.81
50684;BME280;36654;45.042;38.994;2023-07-13T10:07:12;101340.09;;;29.50;43.27
50684;BME280;36654;45.042;38.994;2023-07-13T10:09:38;101340.47;;;29.43;43.45
50684;BME280;36654;45.042;38.994;2023-07-13T10:12:14;101263.06;;;29.13;43.46
50684;BME280;36654;45.042;38.994;2023-07-13T10:14:41;101336.94;;;29.41;42.66
50684;BME280;36654;45.042;38.994;2023-07-13T10:17:11;101319.66;;;29.25;42.58
50684;BME280;36654;45.042;38.994;2023-07-13T10:19:37;101320.13;;;29.17;43.10
50684;BME280;36654;45.042;38.994;2023-07-13T10:22:41;101338.34;;;29.17;43.76
50684;BME280;36654;45.042;38.994;2023-07-13T10:25:21;101342.06;;;29.16;43.63
50684;BME280;36654;45.042;38.994;2023-07-13T10:27:50;101330.34;;;29.14;43.75
50684;BME280;36654;45.042;38.994;2023-07-13T10:30:27;101321.97;;;29.17;43.30
50684;BME280;36654;45.042;38.994;2023-07-13T10:32:58;101321.59;;;29.23;43.13
50684;BME280;36654;45.042;38.994;2023-07-13T10:35:27;101325.31;;;29.06;43.31
50684;BME280;36654;45.042;38.994;2023-07-13T10:38:05;101324.69;;;29.01;43.20
50684;BME280;36654;45.042;38.994;2023-07-13T10:43:09;101321.03;;;28.85;42.96
50684;BME280;36654;45.042;38.994;2023-07-13T10:45:37;101321.72;;;28.72;43.02
50684;BME280;36654;45.042;38.994;2023-07-13T10:48:03;101321.28;;;28.64;43.19
50684;BME280;36654;45.042;38.994;2023-07-13T10:50:31;101311.25;;;28.65;43.37
50684;BME280;36654;45.042;38.994;2023-07-13T10:53:03;101326.09;;;28.59;43.78
50684;BME280;36654;45.042;38.994;2023-07-13T10:58:22;101302.94;;;28.33;44.17
50684;BME280;36654;45.042;38.994;2023-07-13T11:01:14;101327.78;;;28.44;44.29
50684;BME280;36654;45.042;38.994;2023-07-13T11:08:52;101318.53;;;28.31;44.04
50684;BME280;36654;45.042;38.994;2023-07-13T11:27:37;101295.50;;;28.70;43.08
50684;BME280;36654;45.042;38.994;2023-07-13T11:30:13;101302.00;;;28.67;43.82
50684;BME280;36654;45.042;38.994;2023-07-13T11:32:45;101307.03;;;28.59;43.90
50684;BME280;36654;45.042;38.994;2023-07-13T11:35:21;101296.53;;;28.51;44.59
50684;BME280;36654;45.042;38.994;2023-07-13T11:37:48;101299.53;;;28.63;44.59
50684;BME280;36654;45.042;38.994;2023-07-13T11:40:14;101294.56;;;28.71;44.30
50684;BME280;36654;45.042;38.994;2023-07-13T11:42:40;101300.09;;;28.85;44.08
50684;BME280;36654;45.042;38.994;2023-07-13T11:45:20;101308.56;;;28.96;44.05
50684;BME280;36654;45.042;38.994;2023-07-13T11:47:49;101281.00;;;29.01;43.88
50684;BME280;36654;45.042;38.994;2023-07-13T11:50:23;101297.47;;;28.99;43.66
50684;BME280;36654;45.042;38.994;2023-07-13T11:52:50;101299.56;;;28.94;43.30
50684;BME280;36654;45.042;38.994;2023-07-13T11:55:20;101285.50;;;28.86;43.38
50684;BME280;36654;45.042;38.994;2023-07-13T11:57:54;101289.59;;;28.77;43.80
50684;BME280;36654;45.042;38.994;2023-07-13T12:00:23;101228.03;;;28.40;44.31
50684;BME280;36654;45.042;38.994;2023-07-13T12:02:54;101290.53;;;28.60;44.47
50684;BME280;36654;45.042;38.994;2023-07-13T12:05:21;101273.66;;;28.54;44.17
50684;BME280;36654;45.042;38.994;2023-07-13T12:07:47;101288.25;;;28.53;44.70
50684;BME280;36654;45.042;38.994;2023-07-13T12:10:23;101281.91;;;28.52;44.25
50684;BME280;36654;45.042;38.994;2023-07-13T12:12:56;101279.63;;;28.60;43.77
50684;BME280;36654;45.042;38.994;2023-07-13T12:15:24;101288.47;;;28.66;43.75
50684;BME280;36654;45.042;38.994;2023-07-13T12:17:50;101293.38;;;28.75;43.21
50684;BME280;36654;45.042;38.994;2023-07-13T12:20:27;101290.22;;;28.82;43.38
50684;BME280;36654;45.042;38.994;2023-07-13T12:22:56;101290.59;;;28.92;42.81
50684;BME280;36654;45.042;38.994;2023-07-13T12:25:22;101280.03;;;29.02;42.72
50684;BME280;36654;45.042;38.994;2023-07-13T12:27:50;101255.72;;;28.97;41.81
50684;BME280;36654;45.042;38.994;2023-07-13T12:30:31;101280.03;;;29.18;41.79
50684;BME280;36654;45.042;38.994;2023-07-13T12:33:10;101254.19;;;29.09;42.30
50684;BME280;36654;45.042;38.994;2023-07-13T12:35:47;101285.34;;;29.21;42.04
50684;BME280;36654;45.042;38.994;2023-07-13T12:38:15;101299.53;;;29.12;42.17
50684;BME280;36654;45.042;38.994;2023-07-13T12:40:41;101298.69;;;28.94;42.47
50684;BME280;36654;45.042;38.994;2023-07-13T12:43:11;101303.63;;;28.87;42.91
50684;BME280;36654;45.042;38.994;2023-07-13T12:45:38;101299.47;;;28.80;42.96
50684;BME280;36654;45.042;38.994;2023-07-13T12:48:13;101302.56;;;28.74;42.93
50684;BME280;36654;45.042;38.994;2023-07-13T12:50:45;101309.88;;;28.73;42.98
50684;BME280;36654;45.042;38.994;2023-07-13T12:53:19;101313.09;;;28.80;42.92
50684;BME280;36654;45.042;38.994;2023-07-13T12:55:57;101304.84;;;28.81;42.90
50684;BME280;36654;45.042;38.994;2023-07-13T12:58:39;101306.97;;;28.76;43.21
50684;BME280;36654;45.042;38.994;2023-07-13T13:01:07;101307.84;;;28.77;43.07
50684;BME280;36654;45.042;38.994;2023-07-13T13:03:35;101305.72;;;28.82;43.21
50684;BME280;36654;45.042;38.994;2023-07-13T13:08:54;101305.91;;;28.79;43.46
50684;BME280;36654;45.042;38.994;2023-07-13T13:11:22;101302.03;;;28.83;42.44
50684;BME280;36654;45.042;38.994;2023-07-13T13:13:49;101309.25;;;28.84;42.84
50684;BME280;36654;45.042;38.994;2023-07-13T13:16:29;101305.03;;;28.94;42.67
50684;BME280;36654;45.042;38.994;2023-07-13T13:18:59;101299.38;;;28.97;42.51
50684;BME280;36654;45.042;38.994;2023-07-13T13:21:27;101289.09;;;29.02;42.93
50684;BME280;36654;45.042;38.994;2023-07-13T13:23:53;101284.44;;;29.04;42.67
50684;BME280;36654;45.042;38.994;2023-07-13T13:26:21;101290.09;;;29.17;42.55
50684;BME280;36654;45.042;38.994;2023-07-13T13:28:47;101287.72;;;29.27;42.51
50684;BME280;36654;45.042;38.994;2023-07-13T13:31:14;101284.78;;;29.30;42.28
50684;BME280;36654;45.042;38.994;2023-07-13T13:33:44;101289.56;;;29.27;42.03